sensor_id;sensor_type;location;lat;lon;timestamp;P1;durP1;ratioP1;P2;durP2;ratioP2
19280;SDS011;9774;52.034;5.342;2023-03-03T00:01:36;11.98;;;7.75;;
19280;SDS011;9774;52.034;5.342;2023-03-03T00:04:03;11.02;;;8.05;;
19280;SDS011;9774;52.034;5.342;2023-03-03T00:06:31;14.00;;;8.75;;
19280;SDS011;9774;52.034;5.342;2023-03-03T00:08:58;10.30;;;7.80;;
19280;SDS011;9774;52.034;5.342;2023-03-03T00:11:25;12.40;;;7.78;;
19280;SDS011;9774;52.034;5.342;2023-03-03T00:13:55;12.43;;;7.78;;
19280;SDS011;9774;52.034;5.342;2023-03-03T00:16:23;10.68;;;7.53;;
19280;SDS011;9774;52.034;5.342;2023-03-03T00:18:53;10.50;;;6.65;;
19280;SDS011;9774;52.034;5.342;2023-03-03T00:21:22;13.25;;;7.88;;
19280;SDS011;9774;52.034;5.342;2023-03-03T00:23:53;10.05;;;6.57;;
19280;SDS011;9774;52.034;5.342;2023-03-03T00:26:28;9.43;;;6.35;;
19280;SDS011;9774;52.034;5.342;2023-03-03T00:29:02;10.70;;;6.97;;
19280;SDS011;9774;52.034;5.342;2023-03-03T00:31:59;9.15;;;6.57;;
19280;SDS011;9774;52.034;5.342;2023-03-03T00:34:46;9.40;;;6.72;;
19280;SDS011;9774;52.034;5.342;2023-03-03T00:37:19;9.65;;;6.88;;
19280;SDS011;9774;52.034;5.342;2023-03-03T00:39:57;8.43;;;6.18;;
19280;SDS011;9774;52.034;5.342;2023-03-03T00:42:44;10.68;;;6.72;;
19280;SDS011;9774;52.034;5.342;2023-03-03T00:45:42;10.98;;;6.95;;
19280;SDS011;9774;52.034;5.342;2023-03-03T00:48:21;10.43;;;6.75;;
19280;SDS011;9774;52.034;5.342;2023-03-03T00:50:50;11.15;;;6.90;;
19280;SDS011;9774;52.034;5.342;2023-03-03T00:53:20;10.77;;;7.07;;
19280;SDS011;9774;52.034;5.342;2023-03-03T00:55:49;10.23;;;6.95;;
19280;SDS011;9774;52.034;5.342;2023-03-03T00:58:18;12.07;;;7.38;;
19280;SDS011;9774;52.034;5.342;2023-03-03T01:00:48;9.82;;;6.40;;
19280;SDS011;9774;52.034;5.342;2023-03-03T01:03:17;12.88;;;7.25;;
19280;SDS011;9774;52.034;5.342;2023-03-03T01:05:46;13.93;;;7.00;;
19280;SDS011;9774;52.034;5.342;2023-03-03T01:08:14;9.80;;;7.15;;
19280;SDS011;9774;52.034;5.342;2023-03-03T01:10:42;11.27;;;7.35;;
19280;SDS011;9774;52.034;5.342;2023-03-03T01:13:14;13.02;;;8.00;;
19280;SDS011;9774;52.034;5.342;2023-03-03T01:15:42;10.38;;;6.78;;
19280;SDS011;9774;52.034;5.342;2023-03-03T01:18:11;11.57;;;7.47;;
19280;SDS011;9774;52.034;5.342;2023-03-03T01:20:38;11.00;;;6.57;;
19280;SDS011;9774;52.034;5.342;2023-03-03T01:23:06;12.10;;;7.47;;
19280;SDS011;9774;52.034;5.342;2023-03-03T01:25:34;13.05;;;7.53;;
19280;SDS011;9774;52.034;5.342;2023-03-03T01:28:02;12.07;;;7.80;;
19280;SDS011;9774;52.034;5.342;2023-03-03T01:30:30;12.13;;;7.38;;
19280;SDS011;9774;52.034;5.342;2023-03-03T01:32:57;12.60;;;8.02;;
19280;SDS011;9774;52.034;5.342;2023-03-03T01:35:26;11.80;;;7.45;;
19280;SDS011;9774;52.034;5.342;2023-03-03T01:37:53;12.50;;;7.72;;
19280;SDS011;9774;52.034;5.342;2023-03-03T01:40:22;11.68;;;7.63;;
19280;SDS011;9774;52.034;5.342;2023-03-03T01:42:50;12.10;;;7.18;;
19280;SDS011;9774;52.034;5.342;2023-03-03T01:45:19;11.25;;;6.93;;
19280;SDS011;9774;52.034;5.342;2023-03-03T01:47:51;12.00;;;7.18;;
19280;SDS011;9774;52.034;5.342;2023-03-03T01:50:30;13.25;;;7.82;;
19280;SDS011;9774;52.034;5.342;2023-03-03T01:53:04;12.77;;;7.10;;
19280;SDS011;9774;52.034;5.342;2023-03-03T01:55:38;13.27;;;7.93;;
19280;SDS011;9774;52.034;5.342;2023-03-03T01:58:08;12.40;;;7.35;;
19280;SDS011;9774;52.034;5.342;2023-03-03T02:00:39;12.40;;;7.53;;
19280;SDS011;9774;52.034;5.342;2023-03-03T02:03:10;11.40;;;7.38;;
19280;SDS011;9774;52.034;5.342;2023-03-03T02:05:38;9.85;;;6.80;;
19280;SDS011;9774;52.034;5.342;2023-03-03T02:08:08;11.82;;;7.43;;
19280;SDS011;9774;52.034;5.342;2023-03-03T02:10:40;9.55;;;6.50;;
19280;SDS011;9774;52.034;5.342;2023-03-03T02:13:08;12.80;;;8.57;;
19280;SDS011;9774;52.034;5.342;2023-03-03T02:15:36;11.00;;;7.05;;
19280;SDS011;9774;52.034;5.342;2023-03-03T02:18:04;12.80;;;7.40;;
19280;SDS011;9774;52.034;5.342;2023-03-03T02:20:37;10.60;;;7.13;;
19280;SDS011;9774;52.034;5.342;2023-03-03T02:23:17;10.32;;;6.85;;
19280;SDS011;9774;52.034;5.342;2023-03-03T02:25:51;11.40;;;6.97;;
19280;SDS011;9774;52.034;5.342;2023-03-03T02:28:31;10.95;;;6.47;;
19280;SDS011;9774;52.034;5.342;2023-03-03T02:31:00;12.57;;;7.53;;
19280;SDS011;9774;52.034;5.342;2023-03-03T02:33:28;11.93;;;7.28;;
19280;SDS011;9774;52.034;5.342;2023-03-03T02:35:55;12.52;;;7.30;;
19280;SDS011;9774;52.034;5.342;2023-03-03T02:38:24;11.93;;;7.63;;
19280;SDS011;9774;52.034;5.342;2023-03-03T02:40:56;12.27;;;8.10;;
19280;SDS011;9774;52.034;5.342;2023-03-03T02:43:30;13.27;;;7.93;;
19280;SDS011;9774;52.034;5.342;2023-03-03T02:46:01;12.00;;;8.10;;
19280;SDS011;9774;52.034;5.342;2023-03-03T02:48:28;13.20;;;7.63;;
19280;SDS011;9774;52.034;5.342;2023-03-03T02:50:56;12.05;;;7.40;;
19280;SDS011;9774;52.034;5.342;2023-03-03T02:53:23;13.63;;;7.28;;
19280;SDS011;9774;52.034;5.342;2023-03-03T02:55:50;10.75;;;7.28;;
19280;SDS011;9774;52.034;5.342;2023-03-03T02:58:17;13.10;;;7.90;;
19280;SDS011;9774;52.034;5.342;2023-03-03T03:00:46;12.93;;;8.20;;
19280;SDS011;9774;52.034;5.342;2023-03-03T03:03:13;15.13;;;7.80;;
19280;SDS011;9774;52.034;5.342;2023-03-03T03:05:41;13.15;;;7.40;;
19280;SDS011;9774;52.034;5.342;2023-03-03T03:08:08;11.73;;;7.18;;
19280;SDS011;9774;52.034;5.342;2023-03-03T03:10:35;13.52;;;7.20;;
19280;SDS011;9774;52.034;5.342;2023-03-03T03:13:03;13.00;;;7.68;;
19280;SDS011;9774;52.034;5.342;2023-03-03T03:15:30;12.30;;;7.03;;
19280;SDS011;9774;52.034;5.342;2023-03-03T03:17:59;12.55;;;7.28;;
19280;SDS011;9774;52.034;5.342;2023-03-03T03:20:26;13.10;;;8.10;;
19280;SDS011;9774;52.034;5.342;2023-03-03T03:22:53;12.40;;;7.95;;
19280;SDS011;9774;52.034;5.342;2023-03-03T03:25:21;12.95;;;8.10;;
19280;SDS011;9774;52.034;5.342;2023-03-03T03:27:48;12.30;;;7.80;;
19280;SDS011;9774;52.034;5.342;2023-03-03T03:30:15;11.95;;;7.28;;
19280;SDS011;9774;52.034;5.342;2023-03-03T03:32:44;12.50;;;7.22;;
19280;SDS011;9774;52.034;5.342;2023-03-03T03:35:13;10.80;;;6.35;;
19280;SDS011;9774;52.034;5.342;2023-03-03T03:37:41;12.70;;;7.45;;
19280;SDS011;9774;52.034;5.342;2023-03-03T03:40:09;11.60;;;6.68;;
19280;SDS011;9774;52.034;5.342;2023-03-03T03:42:37;11.25;;;6.63;;
19280;SDS011;9774;52.034;5.342;2023-03-03T03:45:05;10.85;;;6.32;;
19280;SDS011;9774;52.034;5.342;2023-03-03T03:47:33;9.98;;;6.55;;
19280;SDS011;9774;52.034;5.342;2023-03-03T03:50:00;12.75;;;6.57;;
19280;SDS011;9774;52.034;5.342;2023-03-03T03:52:29;10.88;;;6.75;;
19280;SDS011;9774;52.034;5.342;2023-03-03T03:54:56;13.40;;;7.93;;
19280;SDS011;9774;52.034;5.342;2023-03-03T03:57:24;11.60;;;7.40;;
19280;SDS011;9774;52.034;5.342;2023-03-03T03:59:51;9.38;;;6.13;;
19280;SDS011;9774;52.034;5.342;2023-03-03T04:02:19;12.10;;;6.75;;
19280;SDS011;9774;52.034;5.342;2023-03-03T04:04:46;11.95;;;6.68;;
19280;SDS011;9774;52.034;5.342;2023-03-03T04:07:13;12.02;;;7.32;;
19280;SDS011;9774;52.034;5.342;2023-03-03T04:09:42;12.60;;;6.93;;
19280;SDS011;9774;52.034;5.342;2023-03-03T04:12:09;12.75;;;8.02;;
19280;SDS011;9774;52.034;5.342;2023-03-03T04:14:36;9.85;;;5.78;;
19280;SDS011;9774;52.034;5.342;2023-03-03T04:17:04;11.27;;;6.55;;
19280;SDS011;9774;52.034;5.342;2023-03-03T04:19:31;13.43;;;7.03;;
19280;SDS011;9774;52.034;5.342;2023-03-03T04:21:58;13.18;;;7.22;;
19280;SDS011;9774;52.034;5.342;2023-03-03T04:24:25;13.20;;;7.35;;
19280;SDS011;9774;52.034;5.342;2023-03-03T04:26:54;10.40;;;6.65;;
19280;SDS011;9774;52.034;5.342;2023-03-03T04:29:21;9.90;;;6.28;;
19280;SDS011;9774;52.034;5.342;2023-03-03T04:31:49;11.73;;;6.72;;
19280;SDS011;9774;52.034;5.342;2023-03-03T04:34:16;12.38;;;6.97;;
19280;SDS011;9774;52.034;5.342;2023-03-03T04:36:43;12.40;;;7.30;;
19280;SDS011;9774;52.034;5.342;2023-03-03T04:39:10;11.63;;;6.95;;
19280;SDS011;9774;52.034;5.342;2023-03-03T04:41:38;9.45;;;5.88;;
19280;SDS011;9774;52.034;5.342;2023-03-03T04:44:06;9.75;;;5.72;;
19280;SDS011;9774;52.034;5.342;2023-03-03T04:46:34;10.07;;;5.97;;
19280;SDS011;9774;52.034;5.342;2023-03-03T04:49:01;11.23;;;6.00;;
19280;SDS011;9774;52.034;5.342;2023-03-03T04:51:31;10.77;;;6.57;;
19280;SDS011;9774;52.034;5.342;2023-03-03T04:53:59;10.85;;;6.60;;
19280;SDS011;9774;52.034;5.342;2023-03-03T04:56:26;10.00;;;5.80;;
19280;SDS011;9774;52.034;5.342;2023-03-03T04:58:55;10.32;;;5.70;;
19280;SDS011;9774;52.034;5.342;2023-03-03T05:01:24;10.65;;;6.22;;
19280;SDS011;9774;52.034;5.342;2023-03-03T05:03:51;11.45;;;5.80;;
19280;SDS011;9774;52.034;5.342;2023-03-03T05:06:18;9.75;;;6.45;;
19280;SDS011;9774;52.034;5.342;2023-03-03T05:08:46;13.00;;;7.72;;
19280;SDS011;9774;52.034;5.342;2023-03-03T05:11:13;14.65;;;7.28;;
19280;SDS011;9774;52.034;5.342;2023-03-03T05:13:40;12.43;;;7.45;;
19280;SDS011;9774;52.034;5.342;2023-03-03T05:16:08;11.98;;;6.88;;
19280;SDS011;9774;52.034;5.342;2023-03-03T05:18:37;12.50;;;7.13;;
19280;SDS011;9774;52.034;5.342;2023-03-03T05:21:05;13.02;;;7.40;;
19280;SDS011;9774;52.034;5.342;2023-03-03T05:23:32;13.35;;;6.95;;
19280;SDS011;9774;52.034;5.342;2023-03-03T05:25:59;10.68;;;6.00;;
19280;SDS011;9774;52.034;5.342;2023-03-03T05:28:27;13.38;;;6.45;;
19280;SDS011;9774;52.034;5.342;2023-03-03T05:30:54;11.85;;;6.88;;
19280;SDS011;9774;52.034;5.342;2023-03-03T05:33:21;13.35;;;7.20;;
19280;SDS011;9774;52.034;5.342;2023-03-03T05:35:53;12.35;;;7.32;;
19280;SDS011;9774;52.034;5.342;2023-03-03T05:38:22;11.82;;;6.85;;
19280;SDS011;9774;52.034;5.342;2023-03-03T05:40:50;12.68;;;7.20;;
19280;SDS011;9774;52.034;5.342;2023-03-03T05:43:18;13.40;;;6.50;;
19280;SDS011;9774;52.034;5.342;2023-03-03T05:45:46;10.52;;;5.75;;
19280;SDS011;9774;52.034;5.342;2023-03-03T05:48:13;12.35;;;6.32;;
19280;SDS011;9774;52.034;5.342;2023-03-03T05:50:40;12.90;;;6.20;;
19280;SDS011;9774;52.034;5.342;2023-03-03T05:53:09;11.40;;;5.45;;
19280;SDS011;9774;52.034;5.342;2023-03-03T05:55:36;10.27;;;5.72;;
19280;SDS011;9774;52.034;5.342;2023-03-03T05:58:03;11.57;;;6.07;;
19280;SDS011;9774;52.034;5.342;2023-03-03T06:00:31;9.23;;;5.00;;
19280;SDS011;9774;52.034;5.342;2023-03-03T06:02:58;10.70;;;5.68;;
19280;SDS011;9774;52.034;5.342;2023-03-03T06:05:25;11.27;;;5.90;;
19280;SDS011;9774;52.034;5.342;2023-03-03T06:07:52;10.30;;;5.88;;
19280;SDS011;9774;52.034;5.342;2023-03-03T06:10:21;10.35;;;5.82;;
19280;SDS011;9774;52.034;5.342;2023-03-03T06:12:48;11.88;;;5.43;;
19280;SDS011;9774;52.034;5.342;2023-03-03T06:15:16;11.73;;;5.30;;
19280;SDS011;9774;52.034;5.342;2023-03-03T06:17:43;10.45;;;6.00;;
19280;SDS011;9774;52.034;5.342;2023-03-03T06:20:11;10.57;;;5.75;;
19280;SDS011;9774;52.034;5.342;2023-03-03T06:22:38;8.85;;;5.47;;
19280;SDS011;9774;52.034;5.342;2023-03-03T06:25:05;11.43;;;5.85;;
19280;SDS011;9774;52.034;5.342;2023-03-03T06:27:35;11.73;;;5.78;;
19280;SDS011;9774;52.034;5.342;2023-03-03T06:30:02;12.68;;;6.50;;
19280;SDS011;9774;52.034;5.342;2023-03-03T06:32:30;11.02;;;5.95;;
19280;SDS011;9774;52.034;5.342;2023-03-03T06:34:57;11.18;;;6.20;;
19280;SDS011;9774;52.034;5.342;2023-03-03T06:37:25;10.75;;;6.05;;
19280;SDS011;9774;52.034;5.342;2023-03-03T06:39:52;10.63;;;5.88;;
19280;SDS011;9774;52.034;5.342;2023-03-03T06:42:19;10.88;;;5.97;;
19280;SDS011;9774;52.034;5.342;2023-03-03T06:44:50;11.98;;;6.25;;
19280;SDS011;9774;52.034;5.342;2023-03-03T06:47:17;10.52;;;6.35;;
19280;SDS011;9774;52.034;5.342;2023-03-03T06:49:44;10.35;;;5.50;;
19280;SDS011;9774;52.034;5.342;2023-03-03T06:52:12;10.60;;;5.05;;
19280;SDS011;9774;52.034;5.342;2023-03-03T06:54:42;10.20;;;5.88;;
19280;SDS011;9774;52.034;5.342;2023-03-03T06:57:14;12.07;;;5.78;;
19280;SDS011;9774;52.034;5.342;2023-03-03T06:59:46;10.88;;;5.53;;
19280;SDS011;9774;52.034;5.342;2023-03-03T07:02:17;10.75;;;5.40;;
19280;SDS011;9774;52.034;5.342;2023-03-03T07:04:46;10.88;;;6.20;;
19280;SDS011;9774;52.034;5.342;2023-03-03T07:07:15;10.75;;;5.78;;
19280;SDS011;9774;52.034;5.342;2023-03-03T07:09:45;11.88;;;5.55;;
19280;SDS011;9774;52.034;5.342;2023-03-03T07:12:14;10.30;;;5.47;;
19280;SDS011;9774;52.034;5.342;2023-03-03T07:14:44;8.93;;;5.13;;
19280;SDS011;9774;52.034;5.342;2023-03-03T07:17:17;8.73;;;5.38;;
19280;SDS011;9774;52.034;5.342;2023-03-03T07:19:46;8.68;;;4.78;;
19280;SDS011;9774;52.034;5.342;2023-03-03T07:22:15;8.07;;;4.68;;
19280;SDS011;9774;52.034;5.342;2023-03-03T07:24:44;8.43;;;5.20;;
19280;SDS011;9774;52.034;5.342;2023-03-03T07:27:16;8.80;;;5.00;;
19280;SDS011;9774;52.034;5.342;2023-03-03T07:29:49;8.32;;;4.32;;
19280;SDS011;9774;52.034;5.342;2023-03-03T07:32:26;7.35;;;3.75;;
19280;SDS011;9774;52.034;5.342;2023-03-03T07:35:03;7.45;;;4.35;;
19280;SDS011;9774;52.034;5.342;2023-03-03T07:37:47;7.97;;;4.45;;
19280;SDS011;9774;52.034;5.342;2023-03-03T07:40:24;6.72;;;4.57;;
19280;SDS011;9774;52.034;5.342;2023-03-03T07:43:00;7.63;;;4.15;;
19280;SDS011;9774;52.034;5.342;2023-03-03T07:45:42;9.27;;;4.43;;
19280;SDS011;9774;52.034;5.342;2023-03-03T07:48:15;9.20;;;4.10;;
19280;SDS011;9774;52.034;5.342;2023-03-03T07:50:48;6.32;;;3.55;;
19280;SDS011;9774;52.034;5.342;2023-03-03T07:53:20;8.07;;;4.03;;
19280;SDS011;9774;52.034;5.342;2023-03-03T07:55:51;6.78;;;3.63;;
19280;SDS011;9774;52.034;5.342;2023-03-03T07:58:20;7.60;;;4.15;;
19280;SDS011;9774;52.034;5.342;2023-03-03T08:03:55;6.65;;;3.85;;
19280;SDS011;9774;52.034;5.342;2023-03-03T08:06:26;8.00;;;4.07;;
19280;SDS011;9774;52.034;5.342;2023-03-03T08:09:21;6.40;;;3.88;;
19280;SDS011;9774;52.034;5.342;2023-03-03T08:12:09;5.88;;;3.55;;
19280;SDS011;9774;52.034;5.342;2023-03-03T08:17:53;9.25;;;3.53;;
19280;SDS011;9774;52.034;5.342;2023-03-03T08:23:12;5.63;;;3.50;;
19280;SDS011;9774;52.034;5.342;2023-03-03T08:25:41;7.40;;;3.92;;
19280;SDS011;9774;52.034;5.342;2023-03-03T08:28:09;5.85;;;3.08;;
19280;SDS011;9774;52.034;5.342;2023-03-03T08:30:36;6.60;;;3.58;;
19280;SDS011;9774;52.034;5.342;2023-03-03T08:33:04;5.03;;;3.20;;
19280;SDS011;9774;52.034;5.342;2023-03-03T08:35:31;6.00;;;3.70;;
19280;SDS011;9774;52.034;5.342;2023-03-03T08:37:59;6.15;;;3.40;;
19280;SDS011;9774;52.034;5.342;2023-03-03T08:40:27;6.10;;;3.65;;
19280;SDS011;9774;52.034;5.342;2023-03-03T08:42:55;5.93;;;3.17;;
19280;SDS011;9774;52.034;5.342;2023-03-03T08:45:23;5.95;;;3.75;;
19280;SDS011;9774;52.034;5.342;2023-03-03T08:47:50;6.45;;;3.35;;
19280;SDS011;9774;52.034;5.342;2023-03-03T08:50:18;4.97;;;2.65;;
19280;SDS011;9774;52.034;5.342;2023-03-03T08:52:45;5.50;;;2.97;;
19280;SDS011;9774;52.034;5.342;2023-03-03T08:55:14;5.43;;;2.90;;
19280;SDS011;9774;52.034;5.342;2023-03-03T08:57:41;5.97;;;3.28;;
19280;SDS011;9774;52.034;5.342;2023-03-03T09:00:10;8.07;;;3.63;;
19280;SDS011;9774;52.034;5.342;2023-03-03T09:02:39;4.97;;;2.97;;
19280;SDS011;9774;52.034;5.342;2023-03-03T09:05:06;5.60;;;3.00;;
19280;SDS011;9774;52.034;5.342;2023-03-03T09:07:35;5.20;;;3.10;;
19280;SDS011;9774;52.034;5.342;2023-03-03T09:10:03;4.85;;;2.88;;
19280;SDS011;9774;52.034;5.342;2023-03-03T09:12:34;5.32;;;3.30;;
19280;SDS011;9774;52.034;5.342;2023-03-03T09:15:07;7.07;;;3.45;;
19280;SDS011;9774;52.034;5.342;2023-03-03T09:17:44;5.15;;;2.65;;
19280;SDS011;9774;52.034;5.342;2023-03-03T09:20:24;4.28;;;2.20;;
19280;SDS011;9774;52.034;5.342;2023-03-03T09:22:58;5.05;;;2.92;;
19280;SDS011;9774;52.034;5.342;2023-03-03T09:25:41;5.70;;;2.75;;
19280;SDS011;9774;52.034;5.342;2023-03-03T09:28:12;5.38;;;2.88;;
19280;SDS011;9774;52.034;5.342;2023-03-03T09:30:49;4.78;;;2.85;;
19280;SDS011;9774;52.034;5.342;2023-03-03T09:33:22;6.82;;;3.17;;
19280;SDS011;9774;52.034;5.342;2023-03-03T09:35:52;5.68;;;3.00;;
19280;SDS011;9774;52.034;5.342;2023-03-03T09:38:27;5.68;;;2.65;;
19280;SDS011;9774;52.034;5.342;2023-03-03T09:41:06;5.05;;;2.13;;
19280;SDS011;9774;52.034;5.342;2023-03-03T09:43:54;3.88;;;2.50;;
19280;SDS011;9774;52.034;5.342;2023-03-03T09:46:36;3.78;;;2.22;;
19280;SDS011;9774;52.034;5.342;2023-03-03T09:49:13;6.57;;;2.53;;
19280;SDS011;9774;52.034;5.342;2023-03-03T09:51:56;6.80;;;2.55;;
19280;SDS011;9774;52.034;5.342;2023-03-03T09:54:42;4.75;;;2.67;;
19280;SDS011;9774;52.034;5.342;2023-03-03T09:57:19;4.13;;;2.05;;
19280;SDS011;9774;52.034;5.342;2023-03-03T10:00:01;4.30;;;2.53;;
19280;SDS011;9774;52.034;5.342;2023-03-03T10:02:42;4.53;;;2.10;;
19280;SDS011;9774;52.034;5.342;2023-03-03T10:05:23;4.10;;;2.47;;
19280;SDS011;9774;52.034;5.342;2023-03-03T10:08:02;3.97;;;2.42;;
19280;SDS011;9774;52.034;5.342;2023-03-03T10:10:52;3.63;;;2.17;;
19280;SDS011;9774;52.034;5.342;2023-03-03T10:13:36;5.10;;;2.85;;
19280;SDS011;9774;52.034;5.342;2023-03-03T10:16:20;4.15;;;1.65;;
19280;SDS011;9774;52.034;5.342;2023-03-03T10:19:08;3.50;;;2.10;;
19280;SDS011;9774;52.034;5.342;2023-03-03T10:21:52;4.18;;;2.50;;
19280;SDS011;9774;52.034;5.342;2023-03-03T10:24:28;3.10;;;1.90;;
19280;SDS011;9774;52.034;5.342;2023-03-03T10:26:59;3.63;;;2.25;;
19280;SDS011;9774;52.034;5.342;2023-03-03T10:29:33;3.78;;;2.28;;
19280;SDS011;9774;52.034;5.342;2023-03-03T10:32:24;3.90;;;2.15;;
19280;SDS011;9774;52.034;5.342;2023-03-03T10:35:05;4.63;;;2.40;;
19280;SDS011;9774;52.034;5.342;2023-03-03T10:37:46;5.03;;;2.38;;
19280;SDS011;9774;52.034;5.342;2023-03-03T10:40:21;2.55;;;1.92;;
19280;SDS011;9774;52.034;5.342;2023-03-03T10:45:56;4.95;;;2.10;;
19280;SDS011;9774;52.034;5.342;2023-03-03T10:49:03;4.22;;;2.20;;
19280;SDS011;9774;52.034;5.342;2023-03-03T10:51:45;5.88;;;2.10;;
19280;SDS011;9774;52.034;5.342;2023-03-03T10:54:37;3.63;;;2.00;;
19280;SDS011;9774;52.034;5.342;2023-03-03T10:57:19;4.82;;;2.60;;
19280;SDS011;9774;52.034;5.342;2023-03-03T10:59:58;3.08;;;1.90;;
19280;SDS011;9774;52.034;5.342;2023-03-03T11:02:44;5.63;;;2.25;;
19280;SDS011;9774;52.034;5.342;2023-03-03T11:05:35;4.30;;;2.10;;
19280;SDS011;9774;52.034;5.342;2023-03-03T11:08:08;3.95;;;2.40;;
19280;SDS011;9774;52.034;5.342;2023-03-03T11:10:46;3.88;;;2.25;;
19280;SDS011;9774;52.034;5.342;2023-03-03T11:13:18;3.47;;;1.92;;
19280;SDS011;9774;52.034;5.342;2023-03-03T11:15:57;4.03;;;1.92;;
19280;SDS011;9774;52.034;5.342;2023-03-03T11:18:45;3.10;;;1.50;;
19280;SDS011;9774;52.034;5.342;2023-03-03T11:21:24;3.63;;;1.70;;
19280;SDS011;9774;52.034;5.342;2023-03-03T11:23:59;2.97;;;1.60;;
19280;SDS011;9774;52.034;5.342;2023-03-03T11:26:40;3.45;;;1.80;;
19280;SDS011;9774;52.034;5.342;2023-03-03T11:29:22;2.53;;;1.55;;
19280;SDS011;9774;52.034;5.342;2023-03-03T11:32:06;1.98;;;1.40;;
19280;SDS011;9774;52.034;5.342;2023-03-03T11:34:49;3.63;;;2.10;;
19280;SDS011;9774;52.034;5.342;2023-03-03T11:37:25;2.78;;;2.08;;
19280;SDS011;9774;52.034;5.342;2023-03-03T11:40:03;4.45;;;1.83;;
19280;SDS011;9774;52.034;5.342;2023-03-03T11:42:41;3.33;;;1.88;;
19280;SDS011;9774;52.034;5.342;2023-03-03T11:45:23;3.10;;;1.70;;
19280;SDS011;9774;52.034;5.342;2023-03-03T11:47:57;2.38;;;1.20;;
19280;SDS011;9774;52.034;5.342;2023-03-03T11:50:30;2.08;;;1.25;;
19280;SDS011;9774;52.034;5.342;2023-03-03T11:53:05;3.08;;;1.42;;
19280;SDS011;9774;52.034;5.342;2023-03-03T11:55:48;3.00;;;1.67;;
19280;SDS011;9774;52.034;5.342;2023-03-03T11:58:22;2.65;;;1.60;;
19280;SDS011;9774;52.034;5.342;2023-03-03T12:00:55;3.90;;;2.03;;
19280;SDS011;9774;52.034;5.342;2023-03-03T12:03:29;2.10;;;1.20;;
19280;SDS011;9774;52.034;5.342;2023-03-03T12:06:06;3.63;;;1.20;;
19280;SDS011;9774;52.034;5.342;2023-03-03T12:09:00;2.30;;;1.42;;
19280;SDS011;9774;52.034;5.342;2023-03-03T12:11:41;1.83;;;1.17;;
19280;SDS011;9774;52.034;5.342;2023-03-03T12:14:17;2.35;;;1.00;;
19280;SDS011;9774;52.034;5.342;2023-03-03T12:16:54;1.17;;;0.90;;
19280;SDS011;9774;52.034;5.342;2023-03-03T12:19:31;2.67;;;1.27;;
19280;SDS011;9774;52.034;5.342;2023-03-03T12:22:08;2.00;;;1.13;;
19280;SDS011;9774;52.034;5.342;2023-03-03T12:24:50;3.25;;;1.50;;
19280;SDS011;9774;52.034;5.342;2023-03-03T12:27:32;1.58;;;1.08;;
19280;SDS011;9774;52.034;5.342;2023-03-03T12:30:10;1.15;;;0.77;;
19280;SDS011;9774;52.034;5.342;2023-03-03T12:32:48;1.63;;;0.73;;
19280;SDS011;9774;52.034;5.342;2023-03-03T12:35:26;3.05;;;0.75;;
19280;SDS011;9774;52.034;5.342;2023-03-03T12:38:00;1.73;;;0.90;;
19280;SDS011;9774;52.034;5.342;2023-03-03T12:40:37;1.88;;;0.80;;
19280;SDS011;9774;52.034;5.342;2023-03-03T12:43:15;2.45;;;0.80;;
19280;SDS011;9774;52.034;5.342;2023-03-03T12:45:50;1.77;;;0.75;;
19280;SDS011;9774;52.034;5.342;2023-03-03T12:48:27;3.05;;;1.27;;
19280;SDS011;9774;52.034;5.342;2023-03-03T12:51:04;0.95;;;0.47;;
19280;SDS011;9774;52.034;5.342;2023-03-03T12:53:44;1.00;;;0.40;;
19280;SDS011;9774;52.034;5.342;2023-03-03T12:56:34;1.92;;;0.50;;
19280;SDS011;9774;52.034;5.342;2023-03-03T12:59:08;0.90;;;0.50;;
19280;SDS011;9774;52.034;5.342;2023-03-03T13:01:47;1.90;;;0.70;;
19280;SDS011;9774;52.034;5.342;2023-03-03T13:04:31;3.03;;;0.60;;
19280;SDS011;9774;52.034;5.342;2023-03-03T13:07:04;1.83;;;0.70;;
19280;SDS011;9774;52.034;5.342;2023-03-03T13:09:38;2.70;;;0.90;;
19280;SDS011;9774;52.034;5.342;2023-03-03T13:12:21;1.35;;;0.57;;
19280;SDS011;9774;52.034;5.342;2023-03-03T13:14:59;2.05;;;0.60;;
19280;SDS011;9774;52.034;5.342;2023-03-03T13:17:34;1.02;;;0.63;;
19280;SDS011;9774;52.034;5.342;2023-03-03T13:20:14;1.23;;;0.60;;
19280;SDS011;9774;52.034;5.342;2023-03-03T13:22:49;1.25;;;1.00;;
19280;SDS011;9774;52.034;5.342;2023-03-03T13:25:30;1.70;;;0.90;;
19280;SDS011;9774;52.034;5.342;2023-03-03T13:28:15;1.35;;;0.70;;
19280;SDS011;9774;52.034;5.342;2023-03-03T13:30:54;1.27;;;0.70;;
19280;SDS011;9774;52.034;5.342;2023-03-03T13:33:29;2.35;;;0.82;;
19280;SDS011;9774;52.034;5.342;2023-03-03T13:36:00;3.40;;;1.10;;
19280;SDS011;9774;52.034;5.342;2023-03-03T13:38:34;3.03;;;1.00;;
19280;SDS011;9774;52.034;5.342;2023-03-03T13:41:06;1.52;;;0.75;;
19280;SDS011;9774;52.034;5.342;2023-03-03T13:43:43;2.88;;;1.08;;
19280;SDS011;9774;52.034;5.342;2023-03-03T13:46:16;1.25;;;0.85;;
19280;SDS011;9774;52.034;5.342;2023-03-03T13:48:54;1.02;;;0.50;;
19280;SDS011;9774;52.034;5.342;2023-03-03T13:51:32;0.95;;;0.65;;
19280;SDS011;9774;52.034;5.342;2023-03-03T13:54:08;1.35;;;0.60;;
19280;SDS011;9774;52.034;5.342;2023-03-03T13:56:48;0.95;;;0.85;;
19280;SDS011;9774;52.034;5.342;2023-03-03T13:59:34;1.08;;;0.80;;
19280;SDS011;9774;52.034;5.342;2023-03-03T14:02:18;1.20;;;0.50;;
19280;SDS011;9774;52.034;5.342;2023-03-03T14:05:10;2.20;;;0.47;;
19280;SDS011;9774;52.034;5.342;2023-03-03T14:07:42;2.92;;;1.10;;
19280;SDS011;9774;52.034;5.342;2023-03-03T14:10:18;1.02;;;0.65;;
19280;SDS011;9774;52.034;5.342;2023-03-03T14:12:50;1.38;;;0.77;;
19280;SDS011;9774;52.034;5.342;2023-03-03T14:15:26;1.20;;;0.68;;
19280;SDS011;9774;52.034;5.342;2023-03-03T14:18:01;1.40;;;0.77;;
19280;SDS011;9774;52.034;5.342;2023-03-03T14:20:44;1.08;;;0.57;;
19280;SDS011;9774;52.034;5.342;2023-03-03T14:23:15;2.40;;;0.60;;
19280;SDS011;9774;52.034;5.342;2023-03-03T14:25:53;2.45;;;0.70;;
19280;SDS011;9774;52.034;5.342;2023-03-03T14:28:25;1.55;;;0.55;;
19280;SDS011;9774;52.034;5.342;2023-03-03T14:30:56;1.23;;;0.60;;
19280;SDS011;9774;52.034;5.342;2023-03-03T14:33:34;1.80;;;0.70;;
19280;SDS011;9774;52.034;5.342;2023-03-03T14:36:04;1.48;;;0.75;;
19280;SDS011;9774;52.034;5.342;2023-03-03T14:38:37;0.70;;;0.50;;
19280;SDS011;9774;52.034;5.342;2023-03-03T14:41:15;1.42;;;0.52;;
19280;SDS011;9774;52.034;5.342;2023-03-03T14:43:57;3.13;;;0.30;;
19280;SDS011;9774;52.034;5.342;2023-03-03T14:46:34;0.85;;;0.45;;
19280;SDS011;9774;52.034;5.342;2023-03-03T14:49:05;0.50;;;0.30;;
19280;SDS011;9774;52.034;5.342;2023-03-03T14:51:41;1.35;;;0.32;;
19280;SDS011;9774;52.034;5.342;2023-03-03T14:54:15;0.50;;;0.40;;
19280;SDS011;9774;52.034;5.342;2023-03-03T14:56:56;4.43;;;0.30;;
19280;SDS011;9774;52.034;5.342;2023-03-03T14:59:31;0.63;;;0.40;;
19280;SDS011;9774;52.034;5.342;2023-03-03T15:02:19;0.80;;;0.22;;
19280;SDS011;9774;52.034;5.342;2023-03-03T15:07:54;0.50;;;0.38;;
19280;SDS011;9774;52.034;5.342;2023-03-03T15:10:26;0.50;;;0.30;;
19280;SDS011;9774;52.034;5.342;2023-03-03T15:12:56;0.30;;;0.20;;
19280;SDS011;9774;52.034;5.342;2023-03-03T15:15:24;1.33;;;0.50;;
19280;SDS011;9774;52.034;5.342;2023-03-03T15:17:58;1.40;;;0.50;;
19280;SDS011;9774;52.034;5.342;2023-03-03T15:20:29;2.35;;;0.32;;
19280;SDS011;9774;52.034;5.342;2023-03-03T15:23:10;1.05;;;0.30;;
19280;SDS011;9774;52.034;5.342;2023-03-03T15:25:56;0.75;;;0.40;;
19280;SDS011;9774;52.034;5.342;2023-03-03T15:28:31;2.58;;;0.65;;
19280;SDS011;9774;52.034;5.342;2023-03-03T15:31:09;1.27;;;0.32;;
19280;SDS011;9774;52.034;5.342;2023-03-03T15:33:50;0.60;;;0.30;;
19280;SDS011;9774;52.034;5.342;2023-03-03T15:36:25;0.38;;;0.25;;
19280;SDS011;9774;52.034;5.342;2023-03-03T15:39:02;1.33;;;0.45;;
19280;SDS011;9774;52.034;5.342;2023-03-03T15:41:39;1.13;;;0.40;;
19280;SDS011;9774;52.034;5.342;2023-03-03T15:44:15;2.05;;;0.57;;
19280;SDS011;9774;52.034;5.342;2023-03-03T15:49:49;1.80;;;0.50;;